Depesza METAR lotniska Warszawa-Okęcie

METAR = EPWA 311900Z 35009KT 330V030 9999 FEW026 23/18 Q1012 NOSIG

STACJA......... EPWA - Warszawa-Okęcie (WAW)
POMIAR......... Thu Jul 31, 21:00 CEST
TERAZ.......... Thu Jul 31, 21:34 CEST
CZAS........... 34 min temu
WIATR.......... północny (N) z prędkością 17 km/h
WIDZIALNOŚĆ.. powyżej 10 kilometrów
CHMURY......... zachmurzenie niewielkie (1/8-2/8)
TEMPERATURA.... 23°C
T.PUNKTU ROSY.. 18°C
WILGOTNOŚĆ... 74%
CIŚNIENIE..... 1012 hPa
PROGNOZA....... bez nagłych zmian w ciągu 2h

Depesza METAR lotniska Kraków-Balice

METAR = EPKK 311900Z 00000KT 6000 SCT040 21/20 Q1012

STACJA......... EPKK - Kraków-Balice (KRK)
POMIAR......... Thu Jul 31, 21:00 CEST
TERAZ.......... Thu Jul 31, 21:34 CEST
CZAS........... 34 min temu
WIATR.......... bezwietrznie
WIDZIALNOŚĆ.. 6000 metrów
CHMURY......... zachmurzenie małe (3/8-4/8)
TEMPERATURA.... 21°C
T.PUNKTU ROSY.. 20°C
WILGOTNOŚĆ... 94%
CIŚNIENIE..... 1012 hPa

Depesza METAR lotniska Łódź-Lublinek

METAR = EPLL 311900Z 34005KT 300V360 9999 BKN043 23/16 Q1013

STACJA......... EPLL - Łódź-Lublinek (LCJ)
POMIAR......... Thu Jul 31, 21:00 CEST
TERAZ.......... Thu Jul 31, 21:34 CEST
CZAS........... 34 min temu
WIATR.......... północno północno-zachodni (NNW) z prędkością 9 km/h
WIDZIALNOŚĆ.. powyżej 10 kilometrów
CHMURY......... zachmurzenie średnie (5/8-7/8)
TEMPERATURA.... 23°C
T.PUNKTU ROSY.. 16°C
WILGOTNOŚĆ... 65%
CIŚNIENIE..... 1013 hPa

Depesza METAR lotniska Wrocław-Strachowice

METAR = EPWR 311900Z 30004KT CAVOK 21/18 Q1014

STACJA......... EPWR - Wrocław-Strachowice (WRO)
POMIAR......... Thu Jul 31, 21:00 CEST
TERAZ.......... Thu Jul 31, 21:34 CEST
CZAS........... 34 min temu
WIATR.......... zachodni północno-zachodni (WNW) z prędkością 7 km/h
WIDZIALNOŚĆ.. powyżej 10 kilometrów
CHMURY......... bezchmurne niebo
TEMPERATURA.... 21°C
T.PUNKTU ROSY.. 18°C
WILGOTNOŚĆ... 83%
CIŚNIENIE..... 1014 hPa

Depesza METAR lotniska Katowice-Pyrzowice

METAR = EPKT 311900Z 33005KT 7000 SCT020 20/19 Q1013

STACJA......... EPKT - Katowice-Pyrzowice (KTW)
POMIAR......... Thu Jul 31, 21:00 CEST
TERAZ.......... Thu Jul 31, 21:34 CEST
CZAS........... 34 min temu
WIATR.......... północno północno-zachodni (NNW) z prędkością 9 km/h
WIDZIALNOŚĆ.. 7000 metrów
CHMURY......... zachmurzenie małe (3/8-4/8)
TEMPERATURA.... 20°C
T.PUNKTU ROSY.. 19°C
WILGOTNOŚĆ... 94%
CIŚNIENIE..... 1013 hPa

Depesza METAR lotniska Gdańsk

METAR = EPGD 311900Z 29005KT 9999 FEW040 19/13 Q1014

STACJA......... EPGD - Gdańsk im. Lecha Wałęsy (GDN)
POMIAR......... Thu Jul 31, 21:00 CEST
TERAZ.......... Thu Jul 31, 21:34 CEST
CZAS........... 34 min temu
WIATR.......... zachodni północno-zachodni (WNW) z prędkością 9 km/h
WIDZIALNOŚĆ.. powyżej 10 kilometrów
CHMURY......... zachmurzenie niewielkie (1/8-2/8)
TEMPERATURA.... 19°C
T.PUNKTU ROSY.. 13°C
WILGOTNOŚĆ... 68%
CIŚNIENIE..... 1014 hPa

Depesza METAR lotniska Poznań-Ławica

METAR = EPPO 311900Z 29002KT CAVOK 22/15 Q1014

STACJA......... EPPO - Poznań-Ławica (POZ)
POMIAR......... Thu Jul 31, 21:00 CEST
TERAZ.......... Thu Jul 31, 21:34 CEST
CZAS........... 34 min temu
WIATR.......... zachodni północno-zachodni (WNW) z prędkością 4 km/h
WIDZIALNOŚĆ.. powyżej 10 kilometrów
CHMURY......... bezchmurne niebo
TEMPERATURA.... 22°C
T.PUNKTU ROSY.. 15°C
WILGOTNOŚĆ... 65%
CIŚNIENIE..... 1014 hPa

Depesza METAR lotniska Rzeszów-Jasionka

METAR = EPRZ 311900Z 25005KT CAVOK 22/19 Q1011

STACJA......... EPRZ - Rzeszów-Jasionka (RZE)
POMIAR......... Thu Jul 31, 21:00 CEST
TERAZ.......... Thu Jul 31, 21:34 CEST
CZAS........... 34 min temu
WIATR.......... zachodni południowo-zachodni (WSW) z prędkością 9 km/h
WIDZIALNOŚĆ.. powyżej 10 kilometrów
CHMURY......... bezchmurne niebo
TEMPERATURA.... 22°C
T.PUNKTU ROSY.. 19°C
WILGOTNOŚĆ... 83%
CIŚNIENIE..... 1011 hPa

Depesza METAR lotniska Szczecin-Goleniów

METAR = EPSC 311900Z 00000KT CAVOK 19/14 Q1014

STACJA......... EPSC - Szczecin-Goleniów (SZZ)
POMIAR......... Thu Jul 31, 21:00 CEST
TERAZ.......... Thu Jul 31, 21:34 CEST
CZAS........... 34 min temu
WIATR.......... bezwietrznie
WIDZIALNOŚĆ.. powyżej 10 kilometrów
CHMURY......... bezchmurne niebo
TEMPERATURA.... 19°C
T.PUNKTU ROSY.. 14°C
WILGOTNOŚĆ... 73%
CIŚNIENIE..... 1014 hPa

Depesza METAR lotniska Lublin-Świdnik

METAR = EPLB 221500Z VRB01KT 9999 FEW020 BKN080 26/23 Q1009 NOSIG

STACJA......... EPLB - Lublin-Świdnik (LUZ)
POMIAR......... Mon Aug 22, 17:00 CEST
TERAZ.......... Thu Jul 31, 21:34 CEST
CZAS........... 25780:34 godz temu
WIATR.......... zmienny z prędkością 2 km/h
WIDZIALNOŚĆ.. powyżej 10 kilometrów
CHMURY......... zachmurzenie średnie (5/8-7/8)
TEMPERATURA.... 26°C
T.PUNKTU ROSY.. 23°C
WILGOTNOŚĆ... 84%
CIŚNIENIE..... 1009 hPa
PROGNOZA....... bez nagłych zmian w ciągu 2h

Sprawdź też: prognoza pogody dla miast w Polsce!